FACT

Cape Town International Airport

Cape Town, South Africa
METAR FACT 180700Z 34007KT 9999 BKN012 21/17 Q1010 BECMG SCT012
Observed Flight Rules
Feb-18 @ 07:00 UTC (13 minutes ago) Marginal Visual Flight Rules
Wind Visibility Clouds
340° at 7 knots 10,000+ meters
  • Broken at 1,200' AGL
Temperatures Readings
Current 21°C / 70°F
Dewpoint 17°C / 63°F
Humidity 78%
Altimeter 29.82" Hg
Pressure 1010 hPa
Elevation 42
METAR FACT 180700Z 34007KT 9999 BKN012 21/17 Q1010 BECMG SCT012
Observed Flight Rules
Feb-18 @ 07:00 UTC
(13 minutes ago)
MVFR
Wind Visibility
340° at 7 knots 10,000+ meters
Clouds
  • Broken at 1,200' AGL
Temperature Dewpoint
21°C / 70°F 17°C / 63°F
Humidity Altimeter Pressure
78% 29.82" Hg 1010 hPa